Time;durP1;ratioP1;P1;durP2;ratioP2;P2;SDS_P1;SDS_P2;PMS_P1;PMS_P2;Temp;Humidity;BMP_temperature;BMP_pressure;BME280_temperature;BME280_humidity;BME280_pressure;Samples;Min_cycle;Max_cycle;Signal;HPM_P1;HPM_P2
2021/07/31 00:01:28;;;;;;;;;3.00;3.00;;;;;20.31;45.16;100692.28;5081354;27;45806;-52
2021/07/31 00:03:53;;;;;;;;;2.50;2.00;;;;;20.29;45.04;100696.84;5081330;28;45416;-50
2021/07/31 00:06:18;;;;;;;;;4.00;2.75;;;;;20.26;45.25;100697.00;5081440;28;45270;-50
2021/07/31 00:08:44;;;;;;;;;3.00;2.25;;;;;20.22;45.34;100690.97;5081444;28;45793;-52
2021/07/31 00:11:11;;;;;;;;;3.00;2.00;;;;;20.19;45.09;100696.50;5082410;28;45449;-51
2021/07/31 00:13:37;;;;;;;;;4.50;3.00;;;;;20.20;45.17;100708.00;5082279;28;45318;-52
2021/07/31 00:16:03;;;;;;;;;3.25;3.25;;;;;20.16;45.18;100695.78;5081275;28;45425;-51
2021/07/31 00:18:29;;;;;;;;;2.00;1.00;;;;;20.11;45.06;100694.25;5082502;28;45343;-52
2021/07/31 00:20:55;;;;;;;;;6.00;4.75;;;;;20.10;45.69;100699.66;5081987;28;46213;-50
2021/07/31 00:23:20;;;;;;;;;2.50;2.00;;;;;20.07;45.16;100706.00;5082350;28;45318;-53
2021/07/31 00:25:46;;;;;;;;;5.00;3.00;;;;;20.05;45.63;100715.94;5064168;28;45253;-50
2021/07/31 00:28:11;;;;;;;;;2.50;1.75;;;;;19.98;45.61;100701.19;5082058;28;45224;-50
2021/07/31 00:30:36;;;;;;;;;2.00;2.00;;;;;19.96;45.56;100703.94;5082184;28;46061;-48
2021/07/31 00:33:02;;;;;;;;;3.00;3.00;;;;;19.93;45.54;100709.44;5080911;28;45440;-50
2021/07/31 00:35:27;;;;;;;;;2.25;1.50;;;;;19.92;45.30;100705.06;5082439;27;45236;-49
2021/07/31 00:37:52;;;;;;;;;1.50;1.50;;;;;19.89;45.75;100710.56;5082271;28;45610;-50
2021/07/31 00:40:18;;;;;;;;;4.00;2.00;;;;;19.89;45.55;100707.03;5081901;27;45425;-48
2021/07/31 00:42:44;;;;;;;;;2.00;2.00;;;;;19.86;45.60;100713.41;5081875;28;45216;-48
2021/07/31 00:45:11;;;;;;;;;1.75;1.50;;;;;19.83;45.57;100710.88;5082182;28;45232;-50
2021/07/31 00:47:37;;;;;;;;;1.75;1.00;;;;;19.80;45.46;100711.03;5082083;28;45326;-49
2021/07/31 00:50:04;;;;;;;;;5.50;2.00;;;;;19.76;45.49;100715.66;5081542;28;45386;-52
2021/07/31 00:52:30;;;;;;;;;2.75;2.75;;;;;19.72;45.65;100714.09;5081982;28;45164;-49
2021/07/31 00:54:58;;;;;;;;;3.00;2.00;;;;;19.69;45.80;100708.06;5081960;28;45232;-48
2021/07/31 00:57:23;;;;;;;;;5.00;3.50;;;;;19.63;46.12;100719.91;5081534;28;45414;-49
2021/07/31 00:59:49;;;;;;;;;2.50;2.00;;;;;19.61;46.36;100711.13;5081443;27;45212;-52
2021/07/31 01:02:15;;;;;;;;;1.25;1.25;;;;;19.56;46.01;100713.16;5081750;28;45433;-48
2021/07/31 01:04:40;;;;;;;;;3.50;2.50;;;;;19.55;46.10;100716.78;5081846;28;45328;-48
2021/07/31 01:07:06;;;;;;;;;2.00;2.00;;;;;19.49;45.81;100718.81;5081867;28;45417;-50
2021/07/31 01:09:31;;;;;;;;;5.00;2.75;;;;;19.47;46.03;100715.38;5081509;28;45355;-50
2021/07/31 01:11:57;;;;;;;;;2.50;2.50;;;;;19.45;46.22;100719.91;5080955;27;45335;-50
2021/07/31 01:14:22;;;;;;;;;2.50;1.50;;;;;19.41;46.12;100709.50;5081942;28;45365;-49
2021/07/31 01:16:48;;;;;;;;;2.00;2.00;;;;;19.37;46.42;100714.13;5080407;28;45481;-51
2021/07/31 01:19:14;;;;;;;;;2.75;2.75;;;;;19.31;46.59;100709.13;5081594;28;46398;-48
2021/07/31 01:21:41;;;;;;;;;2.00;2.00;;;;;19.29;46.34;100706.50;5081160;28;45349;-50
2021/07/31 01:24:09;;;;;;;;;2.50;2.50;;;;;19.26;46.45;100713.81;5080143;28;45243;-50
2021/07/31 01:26:40;;;;;;;;;2.00;2.00;;;;;19.25;46.29;100709.44;5079996;28;45544;-50
2021/07/31 01:29:06;;;;;;;;;2.75;2.75;;;;;19.20;46.43;100707.00;5081040;28;46038;-48
2021/07/31 01:31:34;;;;;;;;;4.50;3.50;;;;;19.17;46.84;100708.00;5081190;28;45170;-49
2021/07/31 01:33:59;;;;;;;;;4.00;4.00;;;;;19.16;46.67;100708.09;5081247;28;45302;-51
2021/07/31 01:36:24;;;;;;;;;1.00;1.00;;;;;19.11;46.87;100705.66;5081185;28;45575;-48
2021/07/31 01:38:50;;;;;;;;;5.00;3.00;;;;;19.09;46.42;100704.00;5079685;28;46882;-49
2021/07/31 01:41:15;;;;;;;;;4.75;2.00;;;;;19.07;46.96;100701.44;5081112;27;45307;-51
2021/07/31 01:43:41;;;;;;;;;4.00;4.00;;;;;19.03;46.94;100705.19;5080767;28;45465;-49
2021/07/31 01:46:06;;;;;;;;;3.00;2.00;;;;;18.97;47.28;100711.69;5081122;28;45299;-51
2021/07/31 01:48:31;;;;;;;;;1.75;1.75;;;;;18.95;47.35;100707.38;5080904;28;46022;-49
2021/07/31 01:50:57;;;;;;;;;1.00;1.00;;;;;18.90;47.22;100712.91;5081088;27;45298;-50
2021/07/31 01:53:22;;;;;;;;;2.25;2.25;;;;;18.89;47.30;100723.63;5079709;28;45448;-52
2021/07/31 01:55:47;;;;;;;;;2.00;2.00;;;;;18.84;47.48;100718.50;5081255;28;45282;-49
2021/07/31 01:58:12;;;;;;;;;2.00;2.00;;;;;18.79;47.33;100712.56;5080354;28;45303;-49
2021/07/31 02:00:38;;;;;;;;;5.00;3.00;;;;;18.77;47.53;100714.44;5080774;28;47318;-49
2021/07/31 02:03:03;;;;;;;;;2.25;1.75;;;;;18.77;47.40;100714.44;5080871;28;45353;-48
2021/07/31 02:05:28;;;;;;;;;2.00;2.00;;;;;18.75;47.73;100714.50;5080903;28;45298;-52
2021/07/31 02:07:54;;;;;;;;;3.50;3.50;;;;;18.71;47.51;100718.25;5080477;28;46891;-48
2021/07/31 02:10:19;;;;;;;;;2.75;2.00;;;;;18.67;47.75;100717.53;5080827;28;45250;-51
2021/07/31 02:12:45;;;;;;;;;5.50;2.50;;;;;18.64;47.94;100709.72;5080422;28;45221;-51
2021/07/31 02:15:10;;;;;;;;;1.25;1.00;;;;;18.62;47.74;100716.06;5080736;28;45562;-49
2021/07/31 02:17:35;;;;;;;;;2.75;2.25;;;;;18.51;47.92;100697.94;5080626;28;46449;-47
2021/07/31 02:20:01;;;;;;;;;3.00;3.00;;;;;18.54;47.98;100703.13;5080142;27;45228;-49
2021/07/31 02:22:26;;;;;;;;;4.50;3.00;;;;;18.54;47.96;100696.91;5080752;28;45153;-51
2021/07/31 02:24:51;;;;;;;;;3.00;3.00;;;;;18.49;48.20;100695.34;5079731;28;45405;-49
2021/07/31 02:27:17;;;;;;;;;3.25;3.00;;;;;18.45;48.27;100693.78;5080079;28;45239;-48
2021/07/31 02:29:42;;;;;;;;;3.00;3.00;;;;;18.42;48.14;100693.06;5080401;28;45194;-52
2021/07/31 02:32:08;;;;;;;;;3.00;3.00;;;;;18.40;48.25;100686.94;5080554;27;45227;-47
2021/07/31 02:34:33;;;;;;;;;3.00;2.75;;;;;18.37;48.41;100695.94;5080298;28;45227;-50
2021/07/31 02:36:59;;;;;;;;;4.50;3.00;;;;;18.36;48.38;100699.53;5080297;28;45218;-48
2021/07/31 02:39:24;;;;;;;;;3.75;3.75;;;;;18.31;48.47;100701.53;5080286;28;45215;-50
2021/07/31 02:41:49;;;;;;;;;1.25;1.25;;;;;18.29;48.62;100698.97;5080025;28;45630;-48
2021/07/31 02:44:15;;;;;;;;;3.75;2.50;;;;;18.27;48.59;100692.84;5080075;28;45253;-48
2021/07/31 02:46:40;;;;;;;;;3.00;1.75;;;;;18.20;48.65;100683.44;5080233;28;45492;-51
2021/07/31 02:49:05;;;;;;;;;2.25;2.25;;;;;18.16;48.61;100680.06;5078946;28;45395;-50
2021/07/31 02:51:30;;;;;;;;;4.00;2.50;;;;;18.15;48.64;100688.97;5080461;28;45248;-51
2021/07/31 02:53:56;;;;;;;;;3.25;1.50;;;;;18.13;48.82;100688.16;5080034;28;45516;-48
2021/07/31 02:56:21;;;;;;;;;2.25;2.00;;;;;18.11;48.93;100684.75;5080034;28;45978;-48
2021/07/31 02:58:46;;;;;;;;;2.50;2.00;;;;;18.09;48.89;100685.75;5079654;28;45322;-50
2021/07/31 03:01:12;;;;;;;;;3.25;2.00;;;;;18.04;49.22;100680.63;5080042;28;45489;-49
2021/07/31 03:03:37;;;;;;;;;4.00;3.00;;;;;18.02;49.09;100674.50;5080026;28;45264;-50
2021/07/31 03:06:03;;;;;;;;;2.00;1.00;;;;;18.00;49.26;100681.72;5080056;28;46232;-47
2021/07/31 03:08:28;;;;;;;;;4.00;2.50;;;;;17.96;49.21;100675.69;5079851;28;45321;-50
2021/07/31 03:10:56;;;;;;;;;2.00;1.00;;;;;17.91;49.53;100687.41;5080210;28;45271;-51
2021/07/31 03:13:22;;;;;;;;;4.25;3.75;;;;;17.89;49.43;100687.47;5079420;28;46215;-48
2021/07/31 03:15:47;;;;;;;;;1.00;1.00;;;;;17.87;49.44;100676.94;5079773;28;46374;-49
2021/07/31 03:18:13;;;;;;;;;2.25;2.25;;;;;17.83;49.56;100677.13;5079708;28;45166;-49
2021/07/31 03:20:43;;;;;;;;;2.00;2.00;;;;;17.81;49.73;100678.97;5079753;28;45299;-48
2021/07/31 03:23:09;;;;;;;;;4.25;2.75;;;;;17.78;50.19;100689.75;5079692;28;45266;-48
2021/07/31 03:25:34;;;;;;;;;4.00;3.25;;;;;17.76;49.66;100675.66;5079744;28;46013;-48
2021/07/31 03:27:59;;;;;;;;;3.00;3.00;;;;;17.76;49.65;100678.31;5078888;28;52387;-52
2021/07/31 03:30:25;;;;;;;;;3.25;3.00;;;;;17.73;49.84;100684.66;5079722;27;45203;-48
2021/07/31 03:32:52;;;;;;;;;5.00;3.50;;;;;17.71;49.70;100679.41;5079409;28;47239;-50
2021/07/31 03:35:17;;;;;;;;;3.00;3.00;;;;;17.72;49.94;100682.91;5080208;28;45463;-49
2021/07/31 03:37:43;;;;;;;;;5.00;3.50;;;;;17.68;49.84;100681.34;5082786;27;45248;-48
2021/07/31 03:40:08;;;;;;;;;1.75;1.75;;;;;17.70;49.99;100683.00;5083184;28;45240;-50
2021/07/31 03:42:33;;;;;;;;;2.00;2.00;;;;;17.68;50.07;100686.66;5082655;28;45236;-52
2021/07/31 03:44:59;;;;;;;;;2.75;2.75;;;;;17.68;50.13;100682.22;5081642;28;46179;-50
2021/07/31 03:47:24;;;;;;;;;2.00;2.00;;;;;17.67;49.79;100687.56;5082813;28;45255;-50
2021/07/31 03:49:49;;;;;;;;;3.50;2.25;;;;;17.67;50.09;100687.56;5083144;27;45311;-50
2021/07/31 03:52:14;;;;;;;;;5.25;4.00;;;;;17.58;49.97;100675.56;5082692;28;45284;-50
2021/07/31 03:54:40;;;;;;;;;2.00;2.00;;;;;17.63;50.04;100691.31;5083113;28;45321;-49
2021/07/31 03:57:05;;;;;;;;;2.00;2.00;;;;;17.62;50.35;100689.56;5082222;28;47245;-49
2021/07/31 03:59:30;;;;;;;;;3.25;2.00;;;;;17.60;50.45;100694.13;5083050;28;45290;-49
2021/07/31 04:01:56;;;;;;;;;3.50;3.50;;;;;17.58;50.15;100701.28;5081142;27;46306;-47
2021/07/31 04:04:21;;;;;;;;;4.00;3.00;;;;;17.58;50.17;100698.63;5082572;28;46397;-51
2021/07/31 04:06:47;;;;;;;;;4.75;2.00;;;;;17.57;50.34;100703.06;5082571;28;45231;-48
2021/07/31 04:09:12;;;;;;;;;0.00;0.00;;;;;17.55;50.40;100700.47;5082853;28;45323;-50
2021/07/31 04:11:37;;;;;;;;;2.50;2.00;;;;;17.52;50.37;100703.28;5082363;28;45338;-50
2021/07/31 04:14:02;;;;;;;;;3.00;2.00;;;;;17.51;50.52;100695.38;5082273;28;48750;-51
2021/07/31 04:16:28;;;;;;;;;4.00;3.00;;;;;17.51;50.23;100700.69;5082458;28;45386;-50
2021/07/31 04:18:53;;;;;;;;;1.00;1.00;;;;;17.49;50.27;100698.09;5082667;28;45291;-49
2021/07/31 04:21:19;;;;;;;;;4.75;4.00;;;;;17.52;50.44;100703.28;5082108;28;45384;-50
2021/07/31 04:23:44;;;;;;;;;3.50;3.50;;;;;17.48;50.79;100700.81;5082237;28;47057;-47
2021/07/31 04:26:15;;;;;;;;;0.00;0.00;;;;;17.47;50.65;100701.75;5082278;28;45367;-49
2021/07/31 04:28:41;;;;;;;;;4.75;3.00;;;;;17.46;50.72;100698.22;5082094;28;45291;-48
2021/07/31 04:31:11;;;;;;;;;4.00;3.00;;;;;17.42;50.60;100704.63;5082036;28;45528;-51
2021/07/31 04:33:36;;;;;;;;;1.75;1.75;;;;;17.42;50.76;100709.03;5082047;28;46242;-49
2021/07/31 04:36:02;;;;;;;;;3.00;3.00;;;;;17.40;50.92;100706.47;5082082;27;45413;-52
2021/07/31 04:38:29;;;;;;;;;4.75;3.25;;;;;17.42;50.96;100701.09;5082371;28;45273;-50
2021/07/31 04:40:54;;;;;;;;;5.50;1.75;;;;;17.40;50.78;100700.31;5081935;27;45560;-51
2021/07/31 04:43:20;;;;;;;;;1.50;1.50;;;;;17.40;50.83;100697.66;5081703;28;46009;-49
2021/07/31 04:45:45;;;;;;;;;3.00;3.00;;;;;17.41;50.91;100694.91;5082003;28;45321;-50
2021/07/31 04:48:10;;;;;;;;;3.00;2.25;;;;;17.42;50.91;100709.94;5081729;28;45281;-47
2021/07/31 04:50:36;;;;;;;;;3.00;3.00;;;;;17.42;50.77;100709.94;5081794;27;45402;-51
2021/07/31 04:53:01;;;;;;;;;4.75;3.00;;;;;17.44;50.68;100709.84;5081887;28;45905;-50
2021/07/31 04:55:26;;;;;;;;;3.75;2.25;;;;;17.44;50.95;100708.06;5081765;28;45249;-47
2021/07/31 04:57:52;;;;;;;;;4.75;3.00;;;;;17.44;50.87;100705.41;5081923;28;45384;-50
2021/07/31 05:00:17;;;;;;;;;3.00;3.00;;;;;17.36;50.80;100692.44;5081561;28;45426;-51
2021/07/31 05:02:42;;;;;;;;;2.25;2.25;;;;;17.43;51.05;100708.13;5081894;28;45314;-50
2021/07/31 05:05:09;;;;;;;;;3.00;2.50;;;;;17.38;51.27;100701.22;5081583;28;45453;-50
2021/07/31 05:07:34;;;;;;;;;5.25;5.00;;;;;17.41;51.59;100708.19;5080708;28;45392;-51
2021/07/31 05:09:59;;;;;;;;;3.00;3.00;;;;;17.41;51.35;100716.16;5081420;27;45287;-51
2021/07/31 05:12:25;;;;;;;;;4.50;3.00;;;;;17.36;51.24;100708.38;5081226;28;47029;-49
2021/07/31 05:14:51;;;;;;;;;3.00;3.00;;;;;17.40;51.11;100714.44;5081641;28;45458;-49
2021/07/31 05:17:19;;;;;;;;;4.00;3.50;;;;;17.39;51.34;100720.66;5081823;28;45295;-52
2021/07/31 05:19:45;;;;;;;;;2.75;2.75;;;;;17.38;51.29;100721.59;5081059;27;45247;-49
2021/07/31 05:22:10;;;;;;;;;5.00;3.00;;;;;17.37;51.55;100719.84;5081268;28;46423;-51
2021/07/31 05:24:36;;;;;;;;;4.00;2.00;;;;;17.38;51.36;100722.47;5081229;28;45251;-50
2021/07/31 05:27:02;;;;;;;;;5.00;3.25;;;;;17.37;51.66;100717.22;5081228;28;45369;-50
2021/07/31 05:29:27;;;;;;;;;5.75;2.75;;;;;17.35;51.61;100716.44;5081175;28;45381;-50
2021/07/31 05:31:52;;;;;;;;;3.00;3.00;;;;;17.35;51.58;100724.41;5081264;27;45390;-50
2021/07/31 05:34:17;;;;;;;;;4.25;2.00;;;;;17.32;51.92;100720.09;5081011;28;45448;-49
2021/07/31 05:36:43;;;;;;;;;5.25;3.25;;;;;17.33;51.73;100719.16;5081739;28;45343;-50
2021/07/31 05:39:08;;;;;;;;;3.25;2.25;;;;;17.35;51.56;100727.06;5079908;28;45276;-52
2021/07/31 05:41:33;;;;;;;;;3.00;2.25;;;;;17.31;51.84;100723.66;5081020;28;46040;-49
2021/07/31 05:43:59;;;;;;;;;5.00;4.00;;;;;17.31;52.08;100717.50;5080787;28;45337;-52
2021/07/31 05:46:24;;;;;;;;;3.00;2.50;;;;;17.33;51.87;100726.25;5079971;28;45433;-51
2021/07/31 05:48:50;;;;;;;;;3.25;3.25;;;;;17.30;51.87;100724.59;5079703;28;45318;-51
2021/07/31 05:51:16;;;;;;;;;5.75;3.50;;;;;17.32;52.14;100728.03;5080983;27;45177;-51
2021/07/31 05:53:41;;;;;;;;;6.50;6.00;;;;;17.32;51.91;100732.47;5080844;28;45395;-52
2021/07/31 05:56:08;;;;;;;;;3.00;1.00;;;;;17.32;52.27;100733.34;5081161;28;45237;-52
2021/07/31 05:58:33;;;;;;;;;4.00;4.00;;;;;17.34;52.00;100735.94;5078647;28;45491;-51
2021/07/31 06:00:59;;;;;;;;;3.25;3.25;;;;;17.35;52.03;100733.22;5080197;27;45211;-50
2021/07/31 06:03:24;;;;;;;;;4.75;4.75;;;;;17.37;52.16;100735.78;5080771;28;45165;-48
2021/07/31 06:05:49;;;;;;;;;3.25;3.25;;;;;17.40;51.77;100734.84;5080975;28;45492;-50
2021/07/31 06:08:15;;;;;;;;;7.00;4.75;;;;;17.41;52.18;100737.41;5080668;28;45393;-51
2021/07/31 06:10:40;;;;;;;;;5.75;3.00;;;;;17.40;52.18;100734.84;5080663;28;46135;-50
2021/07/31 06:13:05;;;;;;;;;5.25;3.50;;;;;17.41;52.25;100740.06;5080369;28;45333;-48
2021/07/31 06:15:31;;;;;;;;;6.00;5.50;;;;;17.43;52.47;100746.16;5080914;28;45319;-52
2021/07/31 06:17:56;;;;;;;;;7.50;5.75;;;;;17.44;52.49;100742.59;5080492;28;45513;-51
2021/07/31 06:20:21;;;;;;;;;3.75;3.25;;;;;17.46;52.29;100743.38;5078950;28;46007;-51
2021/07/31 06:22:47;;;;;;;;;4.00;4.00;;;;;17.47;52.25;100736.28;5080260;28;45372;-55
2021/07/31 06:25:12;;;;;;;;;3.00;2.75;;;;;17.48;52.51;100741.53;5080831;28;45311;-51
2021/07/31 06:27:37;;;;;;;;;5.50;5.00;;;;;17.49;52.57;100751.22;5080054;28;45293;-52
2021/07/31 06:30:03;;;;;;;;;4.50;3.75;;;;;17.52;52.53;100745.78;5080436;27;45405;-52
2021/07/31 06:32:29;;;;;;;;;6.25;4.50;;;;;17.53;52.44;100752.84;5080193;28;45315;-51
2021/07/31 06:34:54;;;;;;;;;4.50;4.50;;;;;17.58;52.63;100749.94;5080781;27;45288;-50
2021/07/31 06:37:19;;;;;;;;;5.00;4.00;;;;;17.61;52.42;100747.19;5079931;28;50293;-51
2021/07/31 06:39:45;;;;;;;;;5.25;5.00;;;;;17.64;52.48;100752.34;5080428;27;46079;-53
2021/07/31 06:42:10;;;;;;;;;4.50;4.25;;;;;17.66;52.53;100752.28;5078622;28;45233;-48
2021/07/31 06:44:36;;;;;;;;;6.00;5.00;;;;;17.69;52.59;100757.47;5080350;28;45197;-50
2021/07/31 06:47:01;;;;;;;;;6.00;4.25;;;;;17.74;52.49;100750.16;5080279;28;45355;-50
2021/07/31 06:49:26;;;;;;;;;6.75;6.50;;;;;17.77;52.54;100749.16;5080047;28;46919;-51
2021/07/31 06:51:52;;;;;;;;;5.75;5.00;;;;;17.77;52.47;100755.31;5080079;28;45166;-50
2021/07/31 06:54:18;;;;;;;;;7.00;5.50;;;;;17.78;52.38;100757.06;5080346;28;45288;-49
2021/07/31 06:56:43;;;;;;;;;5.25;4.00;;;;;17.79;52.12;100756.13;5079645;28;45215;-53
2021/07/31 06:59:08;;;;;;;;;3.50;3.50;;;;;17.84;52.42;100751.47;5080316;28;46609;-52
2021/07/31 07:01:34;;;;;;;;;5.25;3.50;;;;;17.87;52.58;100754.00;5079832;28;45228;-49
2021/07/31 07:03:59;;;;;;;;;6.00;3.00;;;;;17.90;52.60;100754.78;5079058;28;45429;-51
2021/07/31 07:06:25;;;;;;;;;7.75;6.00;;;;;17.93;52.53;100752.00;5078531;28;45469;-51
2021/07/31 07:08:50;;;;;;;;;4.75;4.75;;;;;17.96;52.60;100757.19;5080102;28;45442;-49
2021/07/31 07:11:17;;;;;;;;;6.25;5.00;;;;;17.97;52.67;100758.94;5080489;28;45374;-52
2021/07/31 07:13:42;;;;;;;;;6.25;5.00;;;;;18.03;52.02;100756.00;5083369;28;45344;-51
2021/07/31 07:16:08;;;;;;;;;4.75;4.75;;;;;18.07;52.60;100757.59;5083396;28;45315;-51
2021/07/31 07:18:34;;;;;;;;;4.00;4.00;;;;;18.12;52.55;100757.38;5083520;28;45979;-51
2021/07/31 07:21:17;;;;;;;;;6.25;6.25;;;;;18.16;52.58;100772.25;5083053;27;45248;-50
2021/07/31 07:23:42;;;;;;;;;4.50;4.50;;;;;18.18;52.41;100765.09;5083622;28;45264;-50
2021/07/31 07:26:12;;;;;;;;;4.00;4.00;;;;;18.24;52.76;100766.59;5064910;28;46124;-51
2021/07/31 07:28:38;;;;;;;;;7.00;6.00;;;;;18.24;52.63;100766.59;5082846;28;47025;-51
2021/07/31 07:31:05;;;;;;;;;5.50;4.75;;;;;18.29;52.68;100769.91;5083118;27;45237;-52
2021/07/31 07:33:31;;;;;;;;;8.50;5.50;;;;;18.33;52.43;100771.50;5083366;28;45373;-50
2021/07/31 07:35:57;;;;;;;;;4.75;4.75;;;;;18.37;52.71;100770.41;5082941;27;45330;-50
2021/07/31 07:38:22;;;;;;;;;7.50;6.00;;;;;18.41;52.57;100771.13;5081645;28;47067;-52
2021/07/31 07:40:47;;;;;;;;;6.25;5.00;;;;;18.44;52.75;100771.88;5082998;27;45353;-51
2021/07/31 07:43:13;;;;;;;;;7.00;4.50;;;;;18.48;52.41;100768.13;5082855;28;45406;-52
2021/07/31 07:45:38;;;;;;;;;5.00;3.00;;;;;18.52;52.24;100771.50;5082849;28;45322;-49
2021/07/31 07:48:06;;;;;;;;;4.25;4.25;;;;;18.56;52.66;100769.56;5082845;28;46352;-50
2021/07/31 07:50:32;;;;;;;;;6.75;6.00;;;;;18.62;52.51;100770.13;5082709;27;45159;-51
2021/07/31 07:52:57;;;;;;;;;4.50;4.50;;;;;18.70;52.47;100774.22;5083022;28;45494;-49
2021/07/31 07:55:22;;;;;;;;;6.00;4.25;;;;;18.73;52.46;100768.75;5082792;28;45414;-51
2021/07/31 07:57:48;;;;;;;;;6.00;5.25;;;;;18.74;52.24;100765.16;5082389;28;46020;-50
2021/07/31 08:00:14;;;;;;;;;5.50;4.75;;;;;18.75;52.23;100765.06;5081266;28;45262;-50
2021/07/31 08:02:39;;;;;;;;;5.50;5.50;;;;;18.81;52.19;100764.78;5082730;28;45249;-51
2021/07/31 08:05:05;;;;;;;;;6.25;4.00;;;;;18.87;51.99;100765.41;5082667;28;45227;-52
2021/07/31 08:07:30;;;;;;;;;5.00;4.75;;;;;18.91;51.89;100762.56;5082518;28;45334;-50
2021/07/31 08:09:56;;;;;;;;;4.25;3.75;;;;;18.96;52.19;100765.00;5081109;27;45768;-48
2021/07/31 08:12:21;;;;;;;;;5.00;4.00;;;;;19.01;51.96;100770.97;5082264;28;47245;-51
2021/07/31 08:14:47;;;;;;;;;5.00;4.00;;;;;19.04;52.23;100769.97;5082418;28;45326;-51
2021/07/31 08:17:13;;;;;;;;;6.75;5.00;;;;;19.08;52.07;100783.06;5082348;28;46263;-49
2021/07/31 08:19:38;;;;;;;;;6.75;4.50;;;;;19.11;51.79;100774.06;5082081;28;45333;-50
2021/07/31 08:22:03;;;;;;;;;5.25;4.00;;;;;19.17;51.67;100773.75;5081457;27;45413;-52
2021/07/31 08:24:29;;;;;;;;;7.00;4.50;;;;;19.23;52.11;100773.44;5080870;28;45319;-48
2021/07/31 08:26:54;;;;;;;;;4.00;4.00;;;;;19.25;51.60;100765.38;5082123;28;45285;-50
2021/07/31 08:29:20;;;;;;;;;7.00;5.00;;;;;19.31;51.78;100767.72;5080700;28;45245;-49
2021/07/31 08:31:45;;;;;;;;;5.50;5.50;;;;;19.37;51.47;100772.75;5082326;27;45354;-48
2021/07/31 08:34:12;;;;;;;;;4.25;4.25;;;;;19.41;52.02;100778.78;5082069;28;45376;-51
2021/07/31 08:36:38;;;;;;;;;5.00;5.00;;;;;19.45;51.90;100759.88;5080921;28;47688;-51
2021/07/31 08:39:05;;;;;;;;;3.50;3.50;;;;;19.47;51.77;100770.47;5082176;28;45236;-51
2021/07/31 08:41:30;;;;;;;;;4.00;4.00;;;;;19.56;51.38;100771.78;5082165;27;45347;-51
2021/07/31 08:43:56;;;;;;;;;3.75;3.75;;;;;19.60;51.77;100776.03;5081582;28;45501;-52
2021/07/31 08:46:22;;;;;;;;;4.00;4.00;;;;;19.61;51.45;100773.28;5082186;28;45387;-51
2021/07/31 08:48:48;;;;;;;;;5.50;4.75;;;;;19.68;51.29;100779.16;5080501;28;45755;-49
2021/07/31 08:51:15;;;;;;;;;4.25;4.00;;;;;19.68;51.03;100791.63;5082144;27;45383;-47
2021/07/31 08:53:41;;;;;;;;;2.25;2.00;;;;;19.72;51.29;100767.41;5081769;27;45569;-52
2021/07/31 08:56:07;;;;;;;;;4.75;3.00;;;;;19.78;51.33;100771.53;5081810;28;45292;-50
2021/07/31 08:58:32;;;;;;;;;5.50;5.00;;;;;19.83;51.22;100766.03;5081351;28;45273;-47
2021/07/31 09:00:58;;;;;;;;;5.00;4.25;;;;;19.87;50.92;100765.75;5081781;27;45371;-50
2021/07/31 09:03:24;;;;;;;;;6.00;3.50;;;;;19.95;51.28;100773.38;5081551;28;45238;-51
2021/07/31 09:05:49;;;;;;;;;3.00;3.00;;;;;20.02;50.97;100771.22;5081729;27;45916;-49
2021/07/31 09:08:15;;;;;;;;;6.25;5.25;;;;;20.07;51.00;100775.38;5081425;28;45410;-51
2021/07/31 09:10:44;;;;;;;;;3.50;3.50;;;;;20.14;50.60;100781.25;5081784;28;45297;-47
2021/07/31 09:13:15;;;;;;;;;5.75;4.50;;;;;20.20;50.33;100772.03;5081377;28;45617;-49
2021/07/31 09:15:44;;;;;;;;;5.00;4.00;;;;;20.24;50.88;100769.13;5081412;28;47300;-50
2021/07/31 09:18:30;;;;;;;;;2.75;2.75;;;;;20.27;50.33;100776.09;5081292;28;45344;-51
2021/07/31 09:21:12;;;;;;;;;3.25;3.25;;;;;20.34;50.17;100769.50;5081352;28;45497;-49
2021/07/31 09:23:41;;;;;;;;;5.00;3.75;;;;;20.41;50.33;100768.19;5081230;28;45347;-49
2021/07/31 09:26:07;;;;;;;;;4.00;3.50;;;;;20.48;50.66;100778.53;5079846;28;45968;-52
2021/07/31 09:28:32;;;;;;;;;4.50;4.50;;;;;20.53;50.63;100776.50;5081065;28;45333;-52
2021/07/31 09:30:58;;;;;;;;;4.00;4.00;;;;;20.56;50.63;100774.50;5081406;27;45191;-51
2021/07/31 09:33:23;;;;;;;;;5.00;5.00;;;;;20.57;50.50;100765.53;5081085;28;45431;-48
2021/07/31 09:36:00;;;;;;;;;5.25;4.25;;;;;20.66;50.11;100755.31;5081026;27;46301;-52
2021/07/31 09:38:39;;;;;;;;;5.50;4.00;;;;;20.71;50.27;100754.13;5079996;28;45357;-51
2021/07/31 09:41:25;;;;;;;;;2.00;2.00;;;;;20.76;49.71;100760.06;5081008;27;45379;-50
2021/07/31 09:44:03;;;;;;;;;4.50;4.00;;;;;20.84;49.83;100745.41;5080700;27;45240;-50
2021/07/31 09:46:33;;;;;;;;;3.00;3.00;;;;;20.91;50.22;100747.63;5081006;28;47123;-51
2021/07/31 09:49:00;;;;;;;;;5.00;3.75;;;;;20.98;49.96;100745.50;5080692;28;45311;-51
2021/07/31 09:51:35;;;;;;;;;6.50;5.00;;;;;21.05;49.54;100743.31;5063010;28;45201;-51
2021/07/31 09:54:03;;;;;;;;;3.00;3.00;;;;;21.12;49.76;100744.69;5080736;28;45192;-52
2021/07/31 09:56:42;;;;;;;;;4.75;4.00;;;;;21.19;49.69;100742.50;5080485;28;46429;-53
2021/07/31 09:59:09;;;;;;;;;4.00;4.00;;;;;21.24;49.66;100738.63;5080762;28;45430;-52
2021/07/31 10:01:37;;;;;;;;;5.00;4.00;;;;;21.31;49.14;100728.44;5080744;27;45336;-51
2021/07/31 10:04:05;;;;;;;;;5.00;5.00;;;;;21.36;49.28;100731.69;5080617;28;45236;-51
2021/07/31 10:06:31;;;;;;;;;5.25;5.25;;;;;21.43;49.17;100737.50;5080500;28;45298;-49
2021/07/31 10:08:58;;;;;;;;;3.00;3.00;;;;;21.48;48.92;100724.72;5080546;28;45357;-51
2021/07/31 10:11:23;;;;;;;;;5.75;3.50;;;;;21.54;49.04;100726.19;5080559;27;45430;-49
2021/07/31 10:13:49;;;;;;;;;5.50;5.00;;;;;21.64;48.89;100711.31;5079246;28;45610;-49
2021/07/31 10:16:16;;;;;;;;;5.00;3.00;;;;;21.72;48.75;100718.88;5080508;28;45299;-52
2021/07/31 10:18:57;;;;;;;;;4.25;3.00;;;;;21.79;48.44;100712.19;5080653;28;45314;-51
2021/07/31 10:21:25;;;;;;;;;3.00;3.00;;;;;21.88;48.58;100713.44;5080423;28;45450;-51
2021/07/31 10:24:07;;;;;;;;;3.75;2.50;;;;;21.92;48.25;100723.00;5079184;28;45518;-50
2021/07/31 10:26:34;;;;;;;;;3.25;3.25;;;;;21.99;48.49;100710.97;5080181;28;47165;-51
2021/07/31 10:29:27;;;;;;;;;2.25;2.25;;;;;22.06;48.31;100714.09;5080084;28;45286;-53
2021/07/31 10:31:55;;;;;;;;;6.75;6.00;;;;;22.15;48.26;100704.63;5080491;27;45495;-52
2021/07/31 10:34:48;;;;;;;;;4.00;4.00;;;;;22.24;48.19;100706.75;5080316;28;45336;-49
2021/07/31 10:37:32;;;;;;;;;4.00;3.75;;;;;22.33;47.79;100700.78;5080026;27;45253;-49
2021/07/31 10:40:42;;;;;;;;;4.00;3.00;;;;;22.48;47.97;100707.00;5080112;27;45330;-49
2021/07/31 10:43:11;;;;;;;;;5.75;3.00;;;;;22.58;47.80;100707.25;5037187;28;45374;-52
2021/07/31 10:45:37;;;;;;;;;4.50;3.50;;;;;22.66;48.00;100712.97;5074208;28;45383;-53
2021/07/31 10:48:22;;;;;;;;;2.75;2.75;;;;;22.79;47.80;100704.13;5080099;28;45280;-50
2021/07/31 10:50:48;;;;;;;;;6.75;6.75;;;;;22.91;47.41;100711.34;5079736;27;45317;-52
2021/07/31 10:53:14;;;;;;;;;8.00;8.00;;;;;23.03;47.55;100709.66;5080220;28;45500;-52
2021/07/31 10:55:42;;;;;;;;;6.00;6.00;;;;;23.15;47.84;100716.03;5080034;27;45330;-50
2021/07/31 10:58:15;;;;;;;;;6.50;6.00;;;;;23.30;47.70;100717.69;5079543;28;45297;-49
2021/07/31 11:00:45;;;;;;;;;4.00;4.00;;;;;23.44;47.50;100707.84;5080008;28;45252;-49
2021/07/31 11:03:27;;;;;;;;;2.50;2.50;;;;;23.62;47.19;100711.94;5079867;28;45284;-51
2021/07/31 11:05:54;;;;;;;;;14.00;14.00;;;;;23.76;46.88;100712.78;5080036;28;45514;-52
2021/07/31 11:08:21;;;;;;;;;8.25;8.00;;;;;23.82;46.81;100701.63;5079637;28;46291;-51
2021/07/31 11:10:49;;;;;;;;;2.75;2.75;;;;;23.95;47.10;100705.19;5078460;28;45350;-51
2021/07/31 11:13:17;;;;;;;;;4.00;3.25;;;;;24.03;46.51;100701.94;5079539;28;45256;-52
2021/07/31 11:15:58;;;;;;;;;3.25;3.25;;;;;24.15;46.14;100697.50;5079777;28;45233;-51
2021/07/31 11:18:40;;;;;;;;;3.25;2.75;;;;;24.24;45.93;100701.34;5079838;28;46111;-52
2021/07/31 11:21:23;;;;;;;;;3.00;2.00;;;;;24.31;46.26;100711.56;5079511;27;45366;-51
2021/07/31 11:23:57;;;;;;;;;3.00;3.00;;;;;24.39;46.10;100700.25;5078418;28;45322;-48